Time;durP1;ratioP1;P1;durP2;ratioP2;P2;SDS_P1;SDS_P2;PMS_P1;PMS_P2;Temp;Humidity;BMP_temperature;BMP_pressure;BME280_temperature;BME280_humidity;BME280_pressure;Samples;Min_cycle;Max_cycle;Signal;HPM_P1;HPM_P2
2023/03/06 00:00:05;;;;;;;43.38;28.90;;;12.40;84.10;;;;;;6239955;23;20273;-78
2023/03/06 00:02:31;;;;;;;38.33;27.05;;;12.40;84.00;;;;;;6240799;23;20004;-78
2023/03/06 00:04:56;;;;;;;44.42;28.27;;;12.40;84.10;;;;;;6240573;23;20027;-78
2023/03/06 00:07:22;;;;;;;40.95;26.02;;;12.40;84.10;;;;;;6240451;23;20075;-78
2023/03/06 00:09:47;;;;;;;44.78;25.95;;;12.40;84.00;;;;;;6240496;23;20004;-78
2023/03/06 00:12:13;;;;;;;43.22;26.48;;;12.40;83.90;;;;;;6213252;23;20472;-79
2023/03/06 00:14:39;;;;;;;36.53;25.05;;;12.30;83.90;;;;;;6239558;23;20011;-79
2023/03/06 00:17:04;;;;;;;42.13;26.55;;;12.30;84.10;;;;;;6240884;23;20480;-79
2023/03/06 00:19:30;;;;;;;40.13;26.05;;;12.30;84.10;;;;;;6240890;23;20335;-79
2023/03/06 00:21:56;;;;;;;40.28;25.20;;;12.30;84.10;;;;;;6239627;23;20063;-80
2023/03/06 00:24:21;;;;;;;42.17;25.35;;;12.30;84.20;;;;;;6239459;23;20004;-80
2023/03/06 00:26:47;;;;;;;36.42;24.88;;;12.30;84.40;;;;;;6239783;23;20004;-79
2023/03/06 00:29:13;;;;;;;41.58;25.80;;;12.30;84.50;;;;;;6239616;23;20438;-79
2023/03/06 00:31:38;;;;;;;35.72;23.80;;;12.30;84.50;;;;;;6212706;23;20659;-78
2023/03/06 00:34:04;;;;;;;38.30;24.23;;;12.30;84.30;;;;;;6239680;23;20054;-78
2023/03/06 00:36:30;;;;;;;41.33;25.80;;;12.30;84.30;;;;;;6240066;23;20038;-78
2023/03/06 00:38:55;;;;;;;37.90;23.80;;;12.30;84.30;;;;;;6240446;23;20402;-78
2023/03/06 00:41:21;;;;;;;35.47;23.17;;;12.30;84.40;;;;;;6240563;23;20099;-78
2023/03/06 00:43:47;;;;;;;38.72;25.15;;;12.30;84.30;;;;;;6239703;23;20690;-78
2023/03/06 00:46:12;;;;;;;36.65;22.23;;;12.30;84.80;;;;;;6213126;23;20038;-78
2023/03/06 00:48:38;;;;;;;37.17;22.05;;;12.30;84.30;;;;;;6239810;23;20449;-78
2023/03/06 00:51:04;;;;;;;34.78;21.48;;;12.30;84.30;;;;;;6240279;23;20011;-78
2023/03/06 00:53:29;;;;;;;35.15;22.08;;;12.30;84.30;;;;;;6240576;23;20004;-78
2023/03/06 00:55:55;;;;;;;32.83;20.85;;;12.30;84.20;;;;;;6239680;23;20347;-78
2023/03/06 00:58:21;;;;;;;32.88;21.63;;;12.30;84.30;;;;;;6240206;23;20031;-78
2023/03/06 01:00:46;;;;;;;31.73;21.65;;;12.30;84.30;;;;;;6239864;23;20033;-79
2023/03/06 01:03:12;;;;;;;33.72;21.58;;;12.20;84.40;;;;;;6239741;23;19996;-78
2023/03/06 01:05:38;;;;;;;32.50;21.63;;;12.30;84.30;;;;;;6239756;23;20377;-78
2023/03/06 01:08:05;;;;;;;30.98;20.13;;;12.20;84.40;;;;;;6240418;23;20004;-77
2023/03/06 01:10:31;;;;;;;32.30;21.10;;;12.20;84.50;;;;;;6239555;23;20430;-77
2023/03/06 01:12:57;;;;;;;29.95;19.20;;;12.20;84.60;;;;;;6239388;23;20034;-79
2023/03/06 01:15:22;;;;;;;30.80;19.65;;;12.20;84.60;;;;;;6240116;23;20197;-77
2023/03/06 01:17:52;;;;;;;30.15;19.27;;;12.20;84.60;;;;;;6239499;23;20079;-77
2023/03/06 01:20:18;;;;;;;31.52;20.02;;;12.30;84.60;;;;;;6239960;23;20000;-76
2023/03/06 01:22:44;;;;;;;33.88;19.45;;;12.30;84.70;;;;;;6240254;23;20007;-76
2023/03/06 01:25:10;;;;;;;28.92;18.67;;;12.30;84.60;;;;;;6240578;23;20090;-76
2023/03/06 01:27:36;;;;;;;26.85;17.63;;;12.30;84.50;;;;;;6241652;23;20051;-77
2023/03/06 01:30:02;;;;;;;31.75;18.58;;;12.30;84.40;;;;;;6241323;23;20012;-77
2023/03/06 01:32:29;;;;;;;28.45;18.33;;;12.30;84.50;;;;;;6241802;23;20018;-75
2023/03/06 01:34:55;;;;;;;29.60;18.58;;;12.30;84.50;;;;;;6241203;23;20000;-76
2023/03/06 01:37:20;;;;;;;28.35;17.73;;;12.30;84.60;;;;;;6241638;23;20008;-76
2023/03/06 01:39:46;;;;;;;25.52;17.63;;;12.20;84.70;;;;;;6242434;23;19998;-76
2023/03/06 01:42:11;;;;;;;31.35;19.02;;;12.30;84.80;;;;;;6242396;23;20007;-77
2023/03/06 01:45:07;;;;;;;31.13;18.30;;;12.30;84.80;;;;;;6241773;23;20027;-76
2023/03/06 01:47:33;;;;;;;28.10;17.23;;;12.30;84.70;;;;;;6241932;23;20000;-76
2023/03/06 01:50:02;;;;;;;30.45;18.27;;;12.30;84.80;;;;;;6242744;23;20006;-76
2023/03/06 01:52:31;;;;;;;26.77;17.50;;;12.30;84.90;;;;;;6213918;23;20300;-76
2023/03/06 01:55:07;;;;;;;28.13;17.08;;;12.30;84.90;;;;;;6241526;23;20450;-77
2023/03/06 01:57:37;;;;;;;29.35;17.30;;;12.30;85.00;;;;;;6214939;23;20008;-76
2023/03/06 02:00:08;;;;;;;24.73;16.02;;;12.30;84.90;;;;;;6241702;23;20067;-78
2023/03/06 02:02:35;;;;;;;28.67;17.67;;;12.30;85.00;;;;;;6241712;23;20076;-77
2023/03/06 02:05:02;;;;;;;29.05;16.88;;;12.30;85.00;;;;;;6241649;23;20011;-77
2023/03/06 02:07:29;;;;;;;30.00;17.17;;;12.30;84.60;;;;;;6241383;23;20007;-78
2023/03/06 02:09:54;;;;;;;26.42;16.02;;;12.30;85.00;;;;;;6241079;23;20054;-77
2023/03/06 02:12:21;;;;;;;26.00;16.65;;;12.30;85.10;;;;;;6241145;23;20013;-77
2023/03/06 02:14:47;;;;;;;28.17;16.77;;;12.30;85.30;;;;;;6239867;23;20011;-76
2023/03/06 02:17:16;;;;;;;26.33;16.48;;;12.30;85.30;;;;;;6239307;23;20075;-77
2023/03/06 02:20:07;;;;;;;29.25;17.58;;;12.30;85.40;;;;;;6240591;23;20010;-79
2023/03/06 02:22:56;;;;;;;27.80;17.08;;;12.30;85.40;;;;;;6241033;23;20095;-79
2023/03/06 02:25:45;;;;;;;32.42;17.60;;;12.20;85.30;;;;;;6240561;23;20434;-78
2023/03/06 02:28:17;;;;;;;26.35;16.27;;;12.20;85.50;;;;;;6213986;23;20016;-78
2023/03/06 02:30:44;;;;;;;27.17;17.35;;;12.20;85.60;;;;;;6240652;23;20008;-78
2023/03/06 02:33:13;;;;;;;30.58;18.83;;;12.10;85.80;;;;;;6240615;23;20482;-79
2023/03/06 02:35:39;;;;;;;27.90;17.25;;;12.10;85.70;;;;;;6241389;23;20027;-77
2023/03/06 02:38:16;;;;;;;27.92;17.85;;;12.00;85.80;;;;;;6241004;23;20430;-77
2023/03/06 02:40:46;;;;;;;26.70;16.95;;;12.00;86.10;;;;;;6240842;23;20449;-77
2023/03/06 02:43:15;;;;;;;26.20;18.20;;;12.00;86.50;;;;;;6240555;23;19996;-77
2023/03/06 02:45:47;;;;;;;33.47;19.95;;;11.90;86.40;;;;;;6240087;23;20498;-79
2023/03/06 02:48:14;;;;;;;30.17;19.23;;;11.90;87.00;;;;;;6241376;23;20011;-79
2023/03/06 02:50:41;;;;;;;27.40;18.00;;;11.80;86.80;;;;;;6240865;23;20008;-78
2023/03/06 02:53:08;;;;;;;33.42;19.17;;;11.80;86.80;;;;;;6240457;23;20423;-78
2023/03/06 02:55:34;;;;;;;28.98;17.83;;;11.80;87.00;;;;;;6240478;23;20016;-78
2023/03/06 02:58:01;;;;;;;33.30;19.88;;;11.80;87.10;;;;;;6241251;23;19996;-78
2023/03/06 03:00:27;;;;;;;31.98;20.48;;;11.80;87.20;;;;;;6240552;23;20012;-78
2023/03/06 03:02:53;;;;;;;35.60;20.05;;;11.80;87.30;;;;;;6240423;23;20000;-78
2023/03/06 03:05:19;;;;;;;28.88;19.63;;;11.80;87.20;;;;;;6240449;23;20027;-78
2023/03/06 03:07:45;;;;;;;28.17;18.60;;;11.80;87.20;;;;;;6240636;23;20004;-78
2023/03/06 03:10:12;;;;;;;30.17;18.88;;;11.80;87.20;;;;;;6240994;23;20007;-78
2023/03/06 03:12:38;;;;;;;28.05;18.75;;;11.80;87.30;;;;;;6240835;23;20315;-78
2023/03/06 03:15:05;;;;;;;30.92;19.70;;;11.70;87.20;;;;;;6240938;23;20059;-78
2023/03/06 03:17:31;;;;;;;30.27;18.83;;;11.80;87.30;;;;;;6240952;23;20000;-78
2023/03/06 03:19:57;;;;;;;29.80;19.33;;;11.70;87.30;;;;;;6241118;23;20310;-78
2023/03/06 03:22:22;;;;;;;31.77;20.70;;;11.70;87.50;;;;;;6240104;23;20272;-77
2023/03/06 03:24:48;;;;;;;27.25;18.50;;;11.70;87.60;;;;;;6240811;23;20058;-78
2023/03/06 03:27:14;;;;;;;27.67;18.30;;;11.60;87.90;;;;;;6240352;23;20098;-77
2023/03/06 03:29:41;;;;;;;31.38;19.45;;;11.60;87.70;;;;;;6240428;23;20000;-76
2023/03/06 03:32:07;;;;;;;27.27;19.38;;;11.50;88.20;;;;;;6241408;23;20004;-77
2023/03/06 03:34:33;;;;;;;38.85;24.67;;;11.40;88.10;;;;;;6240998;23;20008;-78
2023/03/06 03:36:59;;;;;;;32.22;20.63;;;11.40;88.40;;;;;;6240823;23;20009;-76
2023/03/06 03:39:25;;;;;;;31.40;20.48;;;11.10;89.30;;;;;;6239635;23;20385;-76
2023/03/06 03:41:50;;;;;;;29.30;19.73;;;11.10;89.10;;;;;;6240975;23;20302;-76
2023/03/06 03:44:16;;;;;;;33.53;20.50;;;11.10;88.80;;;;;;6240346;23;20050;-76
2023/03/06 03:46:41;;;;;;;34.20;20.75;;;11.10;89.50;;;;;;6240668;23;20004;-76
2023/03/06 03:49:07;;;;;;;36.25;21.08;;;11.10;89.50;;;;;;6240332;23;20012;-77
2023/03/06 03:51:33;;;;;;;31.02;20.88;;;11.00;90.30;;;;;;6241201;23;20034;-77
2023/03/06 03:53:58;;;;;;;34.70;21.98;;;10.90;89.90;;;;;;6240392;23;20011;-76
2023/03/06 03:56:25;;;;;;;35.70;21.95;;;10.90;89.80;;;;;;6239821;23;20008;-77
2023/03/06 03:58:51;;;;;;;40.60;22.40;;;11.00;89.80;;;;;;6239922;23;20536;-76
2023/03/06 04:01:17;;;;;;;37.80;22.88;;;11.00;89.20;;;;;;6241026;23;20004;-77
2023/03/06 04:03:43;;;;;;;38.17;23.20;;;11.00;89.60;;;;;;6239212;23;20821;-77
2023/03/06 04:06:08;;;;;;;31.33;21.20;;;10.90;90.20;;;;;;6240718;23;20391;-78
2023/03/06 04:08:34;;;;;;;36.38;23.30;;;10.90;89.90;;;;;;6240396;23;20031;-78
2023/03/06 04:11:01;;;;;;;48.28;25.63;;;10.90;89.80;;;;;;6240404;23;20004;-79
2023/03/06 04:13:27;;;;;;;41.22;25.30;;;10.90;90.20;;;;;;6240241;23;20050;-79
2023/03/06 04:15:54;;;;;;;44.72;25.88;;;10.80;90.00;;;;;;6240501;23;20399;-78
2023/03/06 04:18:22;;;;;;;40.15;25.20;;;10.70;90.50;;;;;;6240359;23;20027;-78
2023/03/06 04:20:48;;;;;;;40.47;25.52;;;10.70;90.90;;;;;;6239244;23;20094;-78
2023/03/06 04:23:15;;;;;;;33.38;20.95;;;10.50;90.90;;;;;;6239833;23;20769;-78
2023/03/06 04:25:41;;;;;;;33.92;21.13;;;10.50;90.70;;;;;;6241647;23;20057;-78
2023/03/06 04:28:07;;;;;;;36.60;23.15;;;10.60;90.70;;;;;;6240372;23;20070;-78
2023/03/06 04:30:33;;;;;;;35.97;20.45;;;10.60;90.80;;;;;;6238898;23;20010;-78
2023/03/06 04:32:59;;;;;;;37.42;21.70;;;10.60;90.30;;;;;;6239449;23;20072;-78
2023/03/06 04:35:25;;;;;;;32.40;20.33;;;10.70;90.40;;;;;;6239816;23;20327;-78
2023/03/06 04:37:51;;;;;;;34.60;20.38;;;10.80;90.40;;;;;;6212512;23;20419;-78
2023/03/06 04:40:27;;;;;;;37.90;21.15;;;10.80;90.40;;;;;;6239411;23;20000;-78
2023/03/06 04:42:53;;;;;;;32.72;20.88;;;10.70;90.60;;;;;;6240170;23;20004;-78
2023/03/06 04:45:19;;;;;;;36.42;23.05;;;;;;;;;;6239612;23;20042;-78
2023/03/06 04:47:45;;;;;;;36.75;23.83;;;10.70;90.40;;;;;;6239893;23;20078;-78
2023/03/06 04:50:11;;;;;;;30.75;19.55;;;10.70;90.60;;;;;;6213141;23;20427;-77
2023/03/06 04:52:39;;;;;;;39.92;22.52;;;10.70;90.30;;;;;;6212468;23;20442;-76
2023/03/06 04:55:07;;;;;;;29.70;19.27;;;10.60;90.20;;;;;;6239399;23;20142;-78
2023/03/06 04:57:38;;;;;;;34.90;20.80;;;10.70;90.30;;;;;;6240851;23;20095;-77
2023/03/06 05:00:07;;;;;;;40.13;24.80;;;10.70;90.20;;;;;;6241695;23;19996;-78
2023/03/06 05:02:33;;;;;;;29.53;18.83;;;10.70;90.20;;;;;;6242743;23;20000;-77
2023/03/06 05:04:59;;;;;;;31.45;20.58;;;10.60;90.00;;;;;;6241738;23;20107;-77
2023/03/06 05:07:25;;;;;;;29.40;18.67;;;10.60;90.30;;;;;;6241310;23;20032;-77
2023/03/06 05:09:50;;;;;;;37.53;22.85;;;10.70;90.20;;;;;;6241421;23;20046;-78
2023/03/06 05:12:16;;;;;;;31.38;20.15;;;10.70;90.10;;;;;;6240942;23;20023;-77
2023/03/06 05:14:43;;;;;;;28.65;18.67;;;10.60;90.30;;;;;;6242030;23;20109;-77
2023/03/06 05:17:08;;;;;;;32.08;20.05;;;10.60;90.10;;;;;;6239810;23;20004;-77
2023/03/06 05:19:34;;;;;;;29.90;19.13;;;10.60;89.70;;;;;;6239953;23;20118;-77
2023/03/06 05:22:00;;;;;;;30.48;20.58;;;10.60;89.50;;;;;;6241503;23;20442;-77
2023/03/06 05:24:25;;;;;;;32.00;20.40;;;10.80;90.00;;;;;;6242218;23;20413;-77
2023/03/06 05:26:51;;;;;;;33.15;20.58;;;10.80;89.20;;;;;;6240015;23;20478;-77
2023/03/06 05:29:17;;;;;;;29.38;19.60;;;11.00;89.40;;;;;;6213077;23;20017;-77
2023/03/06 05:31:43;;;;;;;29.38;18.67;;;11.00;89.00;;;;;;6241274;23;20011;-76
2023/03/06 05:34:12;;;;;;;30.92;19.52;;;11.10;88.60;;;;;;6240582;23;20000;-78
2023/03/06 05:36:38;;;;;;;33.53;20.38;;;11.20;88.30;;;;;;6241325;23;20004;-78
2023/03/06 05:39:05;;;;;;;36.45;22.95;;;11.20;88.00;;;;;;6240241;23;20062;-78
2023/03/06 05:41:31;;;;;;;34.45;19.83;;;11.10;86.50;;;;;;6240461;23;20012;-78
2023/03/06 05:43:56;;;;;;;36.35;22.10;;;11.10;87.10;;;;;;6240316;23;20312;-78
2023/03/06 05:46:22;;;;;;;36.85;20.95;;;11.10;86.90;;;;;;6240679;23;20070;-77
2023/03/06 05:48:49;;;;;;;37.90;21.55;;;11.10;87.10;;;;;;6240378;23;20004;-77
2023/03/06 05:51:14;;;;;;;33.88;20.42;;;11.20;87.10;;;;;;6240442;23;20019;-77
2023/03/06 05:53:40;;;;;;;32.38;19.25;;;11.20;86.90;;;;;;6240803;23;20307;-77
2023/03/06 05:56:10;;;;;;;32.65;21.27;;;11.20;86.70;;;;;;6241000;23;20036;-80
2023/03/06 05:58:36;;;;;;;30.65;19.75;;;11.30;85.90;;;;;;6242040;23;20007;-80
2023/03/06 06:01:13;;;;;;;34.92;21.35;;;11.30;86.10;;;;;;6239868;23;20370;-78
2023/03/06 06:03:39;;;;;;;30.92;19.70;;;11.30;85.80;;;;;;6239392;23;20000;-78
2023/03/06 06:06:07;;;;;;;32.05;19.67;;;11.20;85.30;;;;;;6239257;23;20090;-78
2023/03/06 06:08:36;;;;;;;32.95;20.65;;;11.20;85.80;;;;;;6240242;23;20104;-78
2023/03/06 06:11:04;;;;;;;28.35;18.65;;;11.10;85.40;;;;;;6239063;23;20087;-78
2023/03/06 06:13:30;;;;;;;33.03;20.83;;;11.20;86.00;;;;;;6246167;23;20027;-78
2023/03/06 06:15:56;;;;;;;32.53;20.25;;;11.10;85.70;;;;;;6244946;23;20000;-78
2023/03/06 06:18:21;;;;;;;29.73;18.73;;;11.10;85.60;;;;;;6244748;23;20031;-78
2023/03/06 06:20:47;;;;;;;32.08;20.83;;;11.00;85.70;;;;;;6243036;23;20003;-80
2023/03/06 06:23:14;;;;;;;30.27;19.80;;;11.10;85.40;;;;;;6217053;23;20011;-78
2023/03/06 06:25:40;;;;;;;31.67;20.02;;;11.00;85.30;;;;;;6217517;23;20008;-87
2023/03/06 06:28:06;;;;;;;30.67;19.95;;;11.10;85.20;;;;;;6248829;23;20052;-82
2023/03/06 06:30:32;;;;;;;30.90;19.88;;;11.20;85.60;;;;;;6220686;23;20015;-81
2023/03/06 06:32:58;;;;;;;30.17;20.20;;;11.20;85.30;;;;;;6245069;23;20027;-76
2023/03/06 06:35:25;;;;;;;30.73;19.90;;;11.20;85.00;;;;;;6245413;23;20004;-76
2023/03/06 06:37:51;;;;;;;37.30;22.67;;;11.20;84.60;;;;;;6244308;23;19996;-80
2023/03/06 06:40:17;;;;;;;39.28;23.48;;;11.00;84.60;;;;;;6245782;23;20019;-80
2023/03/06 06:42:43;;;;;;;31.65;20.15;;;10.80;84.60;;;;;;6245858;23;20000;-80
2023/03/06 06:45:09;;;;;;;35.53;19.83;;;10.80;85.30;;;;;;6244537;23;20071;-82
2023/03/06 06:47:39;;;;;;;34.28;20.52;;;10.80;85.30;;;;;;6244366;23;20339;-81
2023/03/06 06:50:07;;;;;;;39.05;24.08;;;10.80;85.40;;;;;;6245363;23;20031;-82
2023/03/06 06:52:33;;;;;;;29.17;18.65;;;10.70;85.10;;;;;;6245717;23;20031;-79
2023/03/06 06:54:59;;;;;;;31.13;19.38;;;10.70;85.30;;;;;;6245618;23;20008;-79
2023/03/06 06:57:24;;;;;;;30.02;18.85;;;10.70;85.70;;;;;;6244938;23;20000;-80
2023/03/06 06:59:50;;;;;;;31.42;18.98;;;10.80;85.80;;;;;;6245681;23;20078;-82
2023/03/06 07:02:16;;;;;;;29.05;18.63;;;11.00;84.20;;;;;;6244582;23;19996;-82
2023/03/06 07:04:42;;;;;;;29.70;18.05;;;11.00;84.50;;;;;;6244594;23;20000;-87
2023/03/06 07:07:08;;;;;;;31.30;18.42;;;11.10;84.80;;;;;;6246872;23;20465;-87
2023/03/06 07:09:36;;;;;;;28.10;18.85;;;11.30;84.50;;;;;;6247642;23;19996;-86
2023/03/06 07:12:02;;;;;;;30.55;18.27;;;;;;;;;;6248824;23;20024;-90
2023/03/06 07:14:28;;;;;;;28.70;17.23;;;11.50;83.10;;;;;;6246972;23;20007;-88
2023/03/06 07:16:53;;;;;;;31.95;18.90;;;11.50;82.70;;;;;;6246449;23;20000;-85
2023/03/06 07:19:19;;;;;;;26.55;16.75;;;11.60;82.80;;;;;;6219745;23;20008;-87
2023/03/06 07:21:44;;;;;;;28.05;17.50;;;11.70;82.50;;;;;;6219402;23;20000;-87
2023/03/06 07:24:10;;;;;;;31.55;17.58;;;11.80;82.00;;;;;;6244889;23;20007;-84
2023/03/06 07:26:36;;;;;;;26.75;16.77;;;11.90;79.90;;;;;;6245006;23;20304;-86
2023/03/06 07:29:03;;;;;;;25.25;16.58;;;11.90;80.90;;;;;;6242283;23;20012;-87
2023/03/06 07:31:28;;;;;;;25.35;16.15;;;12.00;80.10;;;;;;6244811;23;20015;-88
2023/03/06 07:33:54;;;;;;;25.60;15.18;;;12.10;80.90;;;;;;6246129;23;20004;-87
2023/03/06 07:36:23;;;;;;;26.92;15.77;;;12.10;80.80;;;;;;6244512;23;20004;-87
2023/03/06 07:38:49;;;;;;;26.50;16.45;;;12.30;80.30;;;;;;6245504;23;19996;-88
2023/03/06 07:41:16;;;;;;;23.92;16.48;;;12.40;80.10;;;;;;6246228;23;19997;-88
2023/03/06 07:43:43;;;;;;;25.77;16.52;;;12.50;78.00;;;;;;6245408;23;20004;-89
2023/03/06 07:46:10;;;;;;;22.33;14.82;;;12.60;79.30;;;;;;6245734;23;20000;-88
2023/03/06 07:48:36;;;;;;;24.10;15.50;;;12.60;79.10;;;;;;6243775;23;20943;-86
2023/03/06 07:51:05;;;;;;;26.35;15.93;;;12.70;79.40;;;;;;6244669;23;20075;-87
2023/03/06 07:53:31;;;;;;;28.58;17.15;;;12.70;78.50;;;;;;6244096;23;20000;-83
2023/03/06 07:55:57;;;;;;;28.20;18.20;;;12.40;78.70;;;;;;6242858;23;20123;-84
2023/03/06 07:58:24;;;;;;;23.95;13.70;;;12.30;79.40;;;;;;6244651;23;20410;-85
2023/03/06 08:00:49;;;;;;;19.98;12.15;;;12.10;80.30;;;;;;6244213;23;20333;-84
2023/03/06 08:03:15;;;;;;;25.38;14.40;;;12.20;80.50;;;;;;6243064;23;20062;-85
2023/03/06 08:05:41;;;;;;;20.33;14.15;;;12.40;80.40;;;;;;6244539;23;20011;-85
2023/03/06 08:08:07;;;;;;;22.30;14.80;;;12.50;80.50;;;;;;6244362;23;20004;-85
2023/03/06 08:10:33;;;;;;;20.23;13.80;;;12.60;80.80;;;;;;6244929;23;20437;-85
2023/03/06 08:12:59;;;;;;;23.65;13.27;;;12.80;80.70;;;;;;6244066;23;20000;-85
2023/03/06 08:15:24;;;;;;;25.15;15.10;;;12.90;80.10;;;;;;6244417;23;20000;-85
2023/03/06 08:17:51;;;;;;;24.80;15.40;;;13.10;80.10;;;;;;6244207;23;20431;-85
2023/03/06 08:20:17;;;;;;;24.52;14.55;;;13.10;79.30;;;;;;6244079;23;20004;-85
2023/03/06 08:22:43;;;;;;;26.40;16.23;;;13.20;79.30;;;;;;6244922;23;20303;-83
2023/03/06 08:25:10;;;;;;;25.73;15.30;;;13.30;78.00;;;;;;6219081;23;20004;-86
2023/03/06 08:27:36;;;;;;;22.70;14.18;;;13.30;78.70;;;;;;6245691;23;20465;-88
2023/03/06 08:30:02;;;;;;;22.80;15.43;;;13.50;79.10;;;;;;6244861;23;20008;-88
2023/03/06 08:32:28;;;;;;;22.40;14.77;;;13.70;78.90;;;;;;6245075;23;20395;-80
2023/03/06 08:34:54;;;;;;;20.60;13.25;;;13.80;77.40;;;;;;6244278;23;20028;-80
2023/03/06 08:37:19;;;;;;;21.13;14.65;;;13.80;77.80;;;;;;6243407;23;20004;-79
2023/03/06 08:39:45;;;;;;;24.70;14.77;;;13.70;77.80;;;;;;6245180;23;20000;-79
2023/03/06 08:42:11;;;;;;;23.80;14.85;;;13.70;78.20;;;;;;6243873;23;20005;-80
2023/03/06 08:44:37;;;;;;;28.77;17.40;;;;;;;;;;6244152;23;20071;-79
2023/03/06 08:47:03;;;;;;;21.20;13.45;;;13.70;76.60;;;;;;6218365;23;20011;-79
2023/03/06 08:49:29;;;;;;;21.77;13.98;;;13.60;77.50;;;;;;6244738;23;20004;-87
2023/03/06 08:51:55;;;;;;;24.40;14.80;;;;;;;;;;6245795;23;20046;-90
2023/03/06 08:54:21;;;;;;;22.00;14.10;;;13.50;78.20;;;;;;6246615;23;20007;-89
2023/03/06 08:56:46;;;;;;;28.33;16.88;;;13.50;78.60;;;;;;6242590;23;20012;-88
2023/03/06 08:59:12;;;;;;;21.75;14.27;;;13.50;78.30;;;;;;6213839;23;20495;-87
2023/03/06 09:01:39;;;;;;;22.73;14.50;;;13.60;78.30;;;;;;6216205;23;20028;-88
2023/03/06 09:04:08;;;;;;;20.73;13.18;;;13.70;78.60;;;;;;6219083;23;20011;-89
2023/03/06 09:06:36;;;;;;;21.85;14.32;;;13.90;78.40;;;;;;6244852;23;20079;-80
2023/03/06 09:09:03;;;;;;;19.70;13.07;;;14.00;78.70;;;;;;6245616;23;20011;-80
2023/03/06 09:11:29;;;;;;;22.52;13.07;;;14.20;78.30;;;;;;6244847;23;20011;-80
2023/03/06 09:13:56;;;;;;;32.20;16.75;;;14.50;78.00;;;;;;6242230;23;20046;-80
2023/03/06 09:16:23;;;;;;;20.13;13.45;;;14.60;77.30;;;;;;6242972;23;20035;-80
2023/03/06 09:18:51;;;;;;;28.48;15.43;;;14.60;77.10;;;;;;6244101;23;20050;-80
2023/03/06 09:21:18;;;;;;;22.45;13.90;;;14.50;76.20;;;;;;6241907;23;20054;-80
2023/03/06 09:23:44;;;;;;;23.13;13.07;;;14.60;76.80;;;;;;6242246;23;20004;-80
2023/03/06 09:26:11;;;;;;;21.38;12.45;;;14.40;77.00;;;;;;6245534;23;20000;-80
2023/03/06 09:28:38;;;;;;;20.45;12.80;;;14.40;77.20;;;;;;6244182;23;20008;-81
2023/03/06 09:31:12;;;;;;;17.30;11.25;;;14.30;77.10;;;;;;6245221;23;20028;-80
2023/03/06 09:33:38;;;;;;;20.30;12.77;;;14.30;77.20;;;;;;6243117;23;20005;-80
2023/03/06 09:36:05;;;;;;;20.67;12.65;;;14.40;77.10;;;;;;6245107;23;20370;-80
2023/03/06 09:38:31;;;;;;;28.33;14.75;;;14.50;77.40;;;;;;6220961;23;20000;-80
2023/03/06 09:40:57;;;;;;;22.00;13.77;;;14.40;77.00;;;;;;6247230;23;20011;-80
2023/03/06 09:43:37;;;;;;;22.15;13.32;;;14.30;77.30;;;;;;6246628;23;19996;-79
2023/03/06 09:46:29;;;;;;;21.63;12.82;;;14.30;77.50;;;;;;6248111;23;20000;-79
2023/03/06 09:49:21;;;;;;;19.55;13.02;;;14.20;77.80;;;;;;6257705;23;20007;-79
2023/03/06 09:52:14;;;;;;;19.25;12.95;;;14.30;77.40;;;;;;6244457;23;20369;-79
2023/03/06 09:54:44;;;;;;;27.42;15.02;;;14.40;77.30;;;;;;6245338;23;20123;-79
2023/03/06 09:57:31;;;;;;;24.30;15.20;;;14.40;77.30;;;;;;6215178;23;20038;-79
2023/03/06 10:00:15;;;;;;;28.10;17.48;;;14.50;77.50;;;;;;6218564;23;20053;-78
2023/03/06 10:02:51;;;;;;;25.65;17.10;;;14.50;77.80;;;;;;6194265;23;20095;-79
2023/03/06 10:05:25;;;;;;;28.63;16.65;;;14.60;77.90;;;;;;6246072;23;20097;-79
2023/03/06 10:08:04;;;;;;;30.90;17.45;;;14.60;77.80;;;;;;6246470;23;20004;-78
2023/03/06 10:10:39;;;;;;;31.85;18.33;;;14.60;78.00;;;;;;6246818;23;20011;-78
2023/03/06 10:13:24;;;;;;;32.08;16.70;;;14.60;78.10;;;;;;6246030;23;20011;-79
2023/03/06 10:15:51;;;;;;;27.33;17.35;;;14.60;78.70;;;;;;6245736;23;20126;-78
2023/03/06 10:18:17;;;;;;;27.00;18.67;;;14.60;78.80;;;;;;6245470;23;20387;-78
2023/03/06 10:20:55;;;;;;;27.05;17.50;;;14.50;79.00;;;;;;6245783;23;20015;-78
2023/03/06 10:23:49;;;;;;;33.08;17.85;;;14.50;78.70;;;;;;6245995;23;20442;-78
2023/03/06 10:26:24;;;;;;;33.28;19.42;;;14.40;79.20;;;;;;6246659;23;20006;-87
2023/03/06 10:28:53;;;;;;;27.83;17.23;;;14.30;79.30;;;;;;6247204;23;20028;-86
2023/03/06 10:31:24;;;;;;;34.95;18.63;;;14.30;79.60;;;;;;6247182;23;20028;-87
2023/03/06 10:34:09;;;;;;;30.58;19.35;;;14.40;79.70;;;;;;6247595;23;20460;-85
2023/03/06 10:36:35;;;;;;;27.40;18.15;;;14.30;79.70;;;;;;6246979;23;20076;-86
2023/03/06 10:39:08;;;;;;;33.92;18.38;;;14.30;80.10;;;;;;6244637;23;20457;-87
2023/03/06 10:41:35;;;;;;;31.40;19.25;;;14.30;80.10;;;;;;6246322;23;20000;-87
2023/03/06 10:44:04;;;;;;;30.95;18.88;;;14.30;80.30;;;;;;6247077;23;20075;-86
2023/03/06 10:46:33;;;;;;;34.78;18.95;;;14.40;80.40;;;;;;6242286;23;20015;-87
2023/03/06 10:49:05;;;;;;;31.27;19.02;;;14.40;80.50;;;;;;6219350;23;20015;-87
2023/03/06 10:51:32;;;;;;;33.30;18.95;;;14.60;80.50;;;;;;6218054;23;20009;-87
2023/03/06 10:54:00;;;;;;;28.23;18.50;;;14.70;80.30;;;;;;6245933;23;20000;-87
2023/03/06 10:56:33;;;;;;;30.20;18.52;;;15.00;80.00;;;;;;6245850;23;20012;-87
2023/03/06 10:59:12;;;;;;;30.38;17.92;;;15.20;79.40;;;;;;6245555;23;20071;-87
2023/03/06 11:01:40;;;;;;;25.98;17.17;;;15.50;79.50;;;;;;6245804;23;19996;-87
2023/03/06 11:04:23;;;;;;;31.95;18.35;;;15.90;79.00;;;;;;6246679;23;20427;-88
2023/03/06 11:07:07;;;;;;;25.50;15.55;;;16.20;77.40;;;;;;6246941;23;20367;-87
2023/03/06 11:09:34;;;;;;;27.42;17.48;;;16.50;76.00;;;;;;6245202;23;20024;-86
2023/03/06 11:12:21;;;;;;;25.02;15.23;;;16.50;71.10;;;;;;6245385;23;20079;-87
2023/03/06 11:15:08;;;;;;;32.90;17.63;;;16.60;70.20;;;;;;6217779;23;20505;-86
2023/03/06 11:17:54;;;;;;;22.48;14.38;;;16.60;70.60;;;;;;6244718;23;20000;-87
2023/03/06 11:20:25;;;;;;;21.58;12.40;;;16.70;71.20;;;;;;6219242;23;20343;-86
2023/03/06 11:23:05;;;;;;;28.83;16.23;;;16.70;70.60;;;;;;6245073;23;20062;-87
2023/03/06 11:25:47;;;;;;;23.60;14.60;;;16.50;67.70;;;;;;6245224;23;20011;-87
2023/03/06 11:28:22;;;;;;;19.83;13.00;;;16.60;69.70;;;;;;6245389;23;20008;-86
2023/03/06 11:30:53;;;;;;;23.70;13.65;;;16.50;70.10;;;;;;6245380;23;20075;-86
2023/03/06 11:33:46;;;;;;;21.23;13.18;;;16.60;69.60;;;;;;6245834;23;20008;-77
2023/03/06 11:36:24;;;;;;;18.15;11.10;;;16.60;69.20;;;;;;6244452;23;20036;-77
2023/03/06 11:38:51;;;;;;;22.45;13.02;;;16.60;68.90;;;;;;6245640;23;20383;-78
2023/03/06 11:41:46;;;;;;;16.77;12.27;;;16.50;67.70;;;;;;6245500;23;20000;-78
2023/03/06 11:44:16;;;;;;;21.75;13.55;;;;;;;;;;6218198;23;20311;-78
2023/03/06 11:46:58;;;;;;;19.43;12.67;;;16.70;68.10;;;;;;6245013;23;20008;-79
2023/03/06 11:49:39;;;;;;;21.85;12.90;;;16.60;68.60;;;;;;6245266;23;20262;-81
2023/03/06 11:52:15;;;;;;;20.95;11.80;;;16.80;67.30;;;;;;6218465;23;20035;-79
2023/03/06 11:54:43;;;;;;;20.60;12.48;;;16.80;67.70;;;;;;6245390;23;20085;-79
2023/03/06 11:57:16;;;;;;;22.10;12.50;;;16.80;66.70;;;;;;6245851;23;20015;-78
2023/03/06 12:00:10;;;;;;;20.48;12.88;;;16.70;64.90;;;;;;6219870;23;20332;-82
2023/03/06 12:03:00;;;;;;;19.77;12.25;;;16.60;67.10;;;;;;6219184;23;20007;-83
2023/03/06 12:05:26;;;;;;;20.60;11.63;;;16.60;66.70;;;;;;6245849;23;20102;-84
2023/03/06 12:07:58;;;;;;;16.48;11.20;;;16.60;66.40;;;;;;6245264;23;20469;-83
2023/03/06 12:10:34;;;;;;;17.90;11.20;;;16.70;66.00;;;;;;6245966;23;20016;-83
2023/03/06 12:13:05;;;;;;;21.90;11.63;;;16.70;66.40;;;;;;6244824;23;20327;-84
2023/03/06 12:15:59;;;;;;;20.83;12.23;;;16.80;66.20;;;;;;6245021;23;20000;-83
2023/03/06 12:18:51;;;;;;;20.95;12.40;;;17.10;66.00;;;;;;6245558;23;20419;-83
2023/03/06 12:21:35;;;;;;;23.33;14.27;;;17.30;65.20;;;;;;6245146;23;20071;-83
2023/03/06 12:24:18;;;;;;;19.80;12.52;;;17.20;64.00;;;;;;6245424;23;20054;-84
2023/03/06 12:26:55;;;;;;;18.33;11.55;;;17.30;64.60;;;;;;6245100;23;20007;-85
2023/03/06 12:30:08;;;;;;;19.10;11.85;;;17.20;64.70;;;;;;6245710;23;20004;-84
2023/03/06 12:33:08;;;;;;;20.77;12.68;;;17.30;65.00;;;;;;6204445;23;20008;-83
2023/03/06 12:35:52;;;;;;;24.48;13.90;;;17.40;65.30;;;;;;6168505;23;20008;-84
2023/03/06 12:38:27;;;;;;;23.70;13.85;;;17.40;65.20;;;;;;6245765;23;20000;-84